Prairieville, LA (70769)

2:26 AM CDT on May 26, 2017 (GMT -0500)
Seven Oaks | | Change Station
Active Advisory: Flood Warning

Elev 48 ft 30.29 °N, 90.97 °W | Updated 0 second ago

Clear
Clear
67.6 °F
Feels Like 67.6 °F
N
0.0
Wind Variable Wind from SSE
Gusts 3.5 mph

Today
High -- | Low -- °F
--% Chance of Precip.
Yesterday
High -- | Low -- °F
Precip. -- in
Pressure 29.89 in
Visibility 10.0 miles
Clouds Clear
Dew Point 62 °F
Humidity 83%
Rainfall 0.00 in
Snow Depth Not available.
6:04 AM 7:57 PM
New Moon, 0% visible
METAR KBTR 260653Z AUTO 16009KT 10SM CLR 21/17 A2989 RMK AO2 SLP120 T02110172
Pressure 29.89 in
Visibility 10.0 miles
Clouds Clear
Dew Point 62 °F
Humidity 83%
Rainfall 0.00 in
Snow Depth Not available.
6:04 AM 7:57 PM
New Moon, 0% visible
METAR KBTR 260653Z AUTO 16009KT 10SM CLR 21/17 A2989 RMK AO2 SLP120 T02110172

Get Your Daily Forecast Email!

Thanks for signing up!

Be on the lookout for a verification email in your inbox.

You'll start receiving severe weather alerts in your inbox..

×

10-Day Weather Forecast

Almanac

Astronomy

May. 26, 2017 Rise Set
Actual Time
Civil Twilight
Nautical Twilight
Astronomical Twilight
Moon
Length of Visible Light
Length of Day
Tomorrow will be .
, % of the Moon is Illuminated

Today's Extremes

State Highs State Lows

Community

WunderPhotos

Category 6

Welcome to Category 6. This is the collective home for Weather Underground's featured writeups by Dr. Jeff Masters (right), Bob Henson (left), Chris Burt, and other regular contributors.

Nearby

Air Quality

  Air Quality AQ Index Pollutant
Not available.

Snow Depth

Station Depth Elevation

Earthquake Activity

City Distance Mag. Time & Date
Minimum magnitude displayed is 2.5.

Coastal Water Temperatures

Place Temperature

Stations

Nearby Weather Stations

Station Location Temp. Windchill Dew Point Humidity Wind Precip. Elev Updated Type
                   

Watches & Warnings

Flood Warning
Issued: 8:51 PM CDT May. 25, 2017 – National Weather Service

The Flood Warning continues for
the Mississippi River at Donaldsonville.
* Until Monday June 12.
* At 7:00 PM Thursday the stage was 29.6 feet.
* Minor flooding is occurring and moderate flooding is forecast.
* Flood stage is 27.0 feet.
* Forecast... the river will continue rising to near 30.0 feet by
Monday may 29. The river will fall below flood stage Tuesday
June 13.
* Impact... at 27.0 feet... navigation becomes difficult for smaller
river craft. Safety precautions for river traffic are urged.


Lat... Lon 3035 9113 3032 9130 3001 9087 3009 9079